Data for 11/29/2005

Time Sea-Level Adjusted Pressure Absolute Pressure Temperature Relative Humidity Dew Point   
(mb) (inHg) (mb) (inHg) (C) (F) (%) (C) (F)
00:05 1017 30.03 846 24.98 -12.5 9.4 87 -14.3 6.3
00:10 1017 30.03 846 24.98 -12.9 8.8 89 -14.4 6.1
00:15 1016 30 846 24.98 -12.8 8.9 89 -14.3 6.2
00:20 1016 30 845 24.95 -12.9 8.7 89 -14.4 6.1
00:25 1016 30 845 24.95 -12.7 9.2 87 -14.5 6
00:30 1016 30 845 24.95 -12.7 9.2 85 -14.8 5.4
00:35 1016 30 845 24.95 -12.7 9.1 84 -14.8 5.3
00:40 1016 30 845 24.95 -12.9 8.9 84 -15 5.1
00:45 1016 30 845 24.95 -12.8 9 86 -14.7 5.6
00:50 1016 30 845 24.95 -12.7 9.1 86 -14.6 5.7
00:55 1016 30 845 24.95 -12.4 9.6 85 -14.5 5.9
01:00 1016 30 845 24.95 -12.3 9.8 84 -14.4 6
01:05 1016 30 845 24.95 -12.2 10.1 83 -14.4 6
01:10 1016 30 845 24.95 -11.9 10.6 82 -14.4 6.1
01:15 1016 30 845 24.95 -12.1 10.3 83 -14.4 6
01:20 1016 30 845 24.95 -12.3 9.8 83 -14.7 5.5
01:25 1016 30 845 24.95 -12.2 10 83 -14.5 5.8
01:30 1016 30 845 24.95 -11.9 10.6 81 -14.5 5.9
01:35 1015 29.97 845 24.95 -11.9 10.5 81 -14.5 5.8
01:40 1016 30 845 24.95 -12 10.5 81 -14.5 5.8
01:45 1015 29.97 845 24.95 -11.9 10.5 81 -14.6 5.8
01:50 1015 29.97 845 24.95 -12.2 10.1 82 -14.7 5.6
01:55 1015 29.97 845 24.95 -12.1 10.3 81 -14.7 5.6
02:00 1015 29.97 845 24.95 -11.9 10.7 81 -14.6 5.8
02:05 1015 29.97 845 24.95 -11.8 10.7 80 -14.6 5.7
02:10 1015 29.97 845 24.95 -11.9 10.6 80 -14.8 5.4
02:15 1015 29.97 844 24.92 -12.1 10.2 80 -14.9 5.2
02:20 1015 29.97 844 24.92 -12 10.4 80 -14.8 5.4
02:25 1015 29.97 844 24.92 -11.9 10.5 80 -14.7 5.6
02:30 1015 29.97 844 24.92 -12.1 10.2 81 -14.7 5.5
02:35 1015 29.97 844 24.92 -12 10.4 79 -15 5.1
02:40 1015 29.97 844 24.92 -11.8 10.9 78 -14.8 5.3
02:45 1015 29.97 844 24.92 -11.9 10.6 79 -14.8 5.4
02:50 1015 29.97 844 24.92 -12 10.4 80 -14.9 5.3
02:55 1015 29.97 844 24.92 -12 10.4 80 -14.8 5.3
03:00 1015 29.97 844 24.92 -12.2 10.1 80 -15 5
03:05 1015 29.97 844 24.92 -12.2 10 80 -14.9 5.1
03:10 1015 29.97 844 24.92 -12.5 9.5 81 -15.1 4.8
03:15 1014 29.94 844 24.92 -12.7 9.1 82 -15.3 4.5
03:20 1014 29.94 843 24.89 -12.5 9.6 81 -15.1 4.8
03:25 1014 29.94 843 24.89 -12.2 10.1 80 -15 5
03:30 1014 29.94 843 24.89 -12.1 10.3 80 -14.9 5.1
03:35 1014 29.94 843 24.89 -11.8 10.8 78 -14.8 5.4
03:40 1014 29.94 843 24.89 -11.6 11.2 77 -14.8 5.3
03:45 1014 29.94 843 24.89 -11.6 11.1 77 -14.8 5.3
03:50 1014 29.94 843 24.89 -11.8 10.8 78 -14.9 5.2
03:55 1013 29.91 843 24.89 -11.7 11 78 -14.8 5.3
04:00 1013 29.91 843 24.89 -11.6 11.2 77 -14.9 5.2
04:05 1013 29.91 842 24.86 -11.5 11.4 76 -14.8 5.3
04:10 1013 29.91 842 24.86 -11.7 11 77 -15 5.1
04:15 1013 29.91 842 24.86 -11.9 10.6 79 -14.8 5.3
04:20 1013 29.91 842 24.86 -11.4 11.4 76 -14.8 5.3
04:25 1013 29.91 842 24.86 -11.4 11.5 76 -14.8 5.4
04:30 1013 29.91 842 24.86 -11.2 11.8 75 -14.9 5.2
04:35 1013 29.91 842 24.86 -11 12.2 73 -14.8 5.3
04:40 1013 29.91 842 24.86 -10.9 12.4 72 -14.9 5.1
04:45 1013 29.91 842 24.86 -11.1 12.1 74 -14.8 5.3
04:50 1013 29.91 842 24.86 -11.1 12 73 -15 5
04:55 1013 29.91 842 24.86 -10.5 13 71 -14.8 5.4
05:00 1013 29.91 842 24.86 -10.7 12.8 73 -14.7 5.6
05:05 1013 29.91 842 24.86 -10.8 12.5 74 -14.7 5.6
05:10 1013 29.91 842 24.86 -10.8 12.6 73 -14.7 5.5
05:15 1013 29.91 842 24.86 -10.5 13.1 72 -14.6 5.7
05:20 1013 29.91 842 24.86 -10.4 13.3 72 -14.6 5.8
05:25 1013 29.91 842 24.86 -10.3 13.4 73 -14.3 6.2
05:30 1013 29.91 842 24.86 -10.3 13.5 72 -14.4 6
05:35 1013 29.91 842 24.86 -10.1 13.9 72 -14.3 6.3
05:40 1013 29.91 842 24.86 -10.1 13.8 72 -14.2 6.4
05:45 1013 29.91 842 24.86 -10.2 13.7 73 -14.1 6.6
05:50 1013 29.91 842 24.86 -10.1 13.8 73 -14.1 6.6
05:55 1013 29.91 842 24.86 -10.1 13.7 73 -14.1 6.7
06:00 1013 29.91 842 24.86 -10.2 13.6 73 -14.2 6.4
06:05 1013 29.91 842 24.86 -10 13.9 74 -13.8 7.1
06:10 1013 29.91 842 24.86 -10.1 13.9 75 -13.7 7.4
06:15 1012 29.88 842 24.86 -10 14 74 -13.8 7.2
06:20 1012 29.88 842 24.86 -9.8 14.4 74 -13.5 7.6
06:25 1012 29.88 842 24.86 -9.7 14.5 75 -13.4 7.9
06:30 1012 29.88 842 24.86 -9.7 14.6 74 -13.4 7.8
06:35 1012 29.88 841 24.83 -9.6 14.7 75 -13.3 8.1
06:40 1012 29.88 841 24.83 -9.7 14.6 75 -13.3 8
06:45 1012 29.88 841 24.83 -9.6 14.7 75 -13.2 8.2
06:50 1012 29.88 841 24.83 -9.4 15 75 -13.2 8.3
06:55 1012 29.88 841 24.83 -9.4 15.1 75 -13.1 8.5
07:00 1012 29.88 841 24.83 -9.2 15.5 74 -13 8.7
07:05 1012 29.88 841 24.83 -9.3 15.3 75 -12.9 8.9
07:10 1012 29.88 841 24.83 -9.3 15.3 76 -12.7 9.1
07:15 1012 29.88 841 24.83 -9.2 15.5 77 -12.4 9.6
07:20 1012 29.88 841 24.83 -9.1 15.6 77 -12.4 9.6
07:25 1012 29.88 841 24.83 -9.1 15.6 78 -12.3 9.8
07:30 1012 29.88 841 24.83 -9 15.7 77 -12.4 9.6
07:35 1012 29.88 841 24.83 -8.8 16.2 75 -12.4 9.7
07:40 1012 29.88 841 24.83 -8.6 16.5 75 -12.3 9.9
07:45 1012 29.88 841 24.83 -8.5 16.7 74 -12.3 9.8
07:50 1012 29.88 841 24.83 -8.4 16.8 74 -12.3 9.9
07:55 1012 29.88 841 24.83 -8.3 17 74 -12.2 10
08:00 1012 29.88 841 24.83 -8.1 17.4 73 -12.1 10.3
08:05 1012 29.88 841 24.83 -8 17.6 73 -12 10.4
08:10 1012 29.88 841 24.83 -7.9 17.9 71 -12.2 10.1
08:15 1011 29.85 841 24.83 -7.9 17.8 74 -11.7 10.9
08:20 1012 29.88 841 24.83 -8.1 17.5 77 -11.4 11.4
08:25 1012 29.88 841 24.83 -8.2 17.2 79 -11.2 11.9
08:30 1011 29.85 841 24.83 -8.6 16.6 80 -11.4 11.5
08:35 1011 29.85 841 24.83 -8.8 16.1 81 -11.6 11.2
08:40 1011 29.85 841 24.83 -8.9 16 80 -11.7 11
08:45 1011 29.85 840 24.81 -8.8 16.1 81 -11.6 11.2
08:50 1011 29.85 840 24.81 -8.7 16.3 79 -11.8 10.8
08:55 1011 29.85 841 24.83 -8.5 16.6 77 -11.8 10.7
09:00 1011 29.85 841 24.83 -8.3 17 77 -11.7 11
09:05 1011 29.85 841 24.83 -8.2 17.3 76 -11.6 11.1
09:10 1011 29.85 840 24.81 -7.9 17.8 76 -11.5 11.4
09:15 1011 29.85 840 24.81 -7.7 18.1 76 -11.2 11.8
09:20 1011 29.85 840 24.81 -7.8 18.1 78 -10.9 12.3
09:25 1011 29.85 840 24.81 -7.7 18.2 78 -10.8 12.5
09:30 1011 29.85 840 24.81 -7.8 17.9 79 -10.8 12.5
09:35 1011 29.85 840 24.81 -7.8 18 81 -10.5 13.1
09:40 1011 29.85 840 24.81 -7.6 18.3 80 -10.5 13.1
09:45 1011 29.85 840 24.81 -7.5 18.5 79 -10.5 13.1
09:50 1011 29.85 840 24.81 -7.2 19.1 77 -10.6 13
09:55 1011 29.85 840 24.81 -6.8 19.8 73 -10.8 12.6
10:00 1011 29.85 840 24.81 -6.6 20.1 75 -10.3 13.5
10:05 1011 29.85 840 24.81 -6.4 20.5 72 -10.6 12.9
10:10 1011 29.85 840 24.81 -6.1 21 74 -10.1 13.8
10:15 1011 29.85 840 24.81 -6 21.2 74 -9.9 14.1
10:20 1011 29.85 840 24.81 -5.7 21.7 73 -9.8 14.3
10:25 1010 29.83 840 24.81 -5.3 22.5 72 -9.5 14.9
10:30 1010 29.83 840 24.81 -5.2 22.7 73 -9.2 15.4
10:35 1010 29.83 840 24.81 -5.3 22.4 76 -9 15.8
10:40 1010 29.83 840 24.81 -6.1 21.1 78 -9.3 15.2
10:45 1010 29.83 839 24.78 -6.4 20.5 79 -9.5 14.9
10:50 1010 29.83 839 24.78 -6.4 20.4 77 -9.8 14.4
10:55 1010 29.83 839 24.78 -6.2 20.9 76 -9.8 14.4
11:00 1010 29.83 839 24.78 -5.9 21.3 75 -9.7 14.5
11:05 1010 29.83 839 24.78 -5.9 21.4 75 -9.6 14.7
11:10 1010 29.83 839 24.78 -6 21.2 75 -9.6 14.6
11:15 1010 29.83 839 24.78 -6.4 20.4 79 -9.5 14.8
11:20 1010 29.83 839 24.78 -6.2 20.8 77 -9.5 14.8
11:25 1010 29.83 839 24.78 -6.3 20.6 78 -9.6 14.7
11:30 1010 29.83 839 24.78 -6.2 20.8 78 -9.6 14.8
11:35 1010 29.83 839 24.78 -6.6 20.1 80 -9.5 14.9
11:40 1010 29.83 839 24.78 -6.3 20.6 78 -9.5 14.8
11:45 1009 29.8 839 24.78 -6 21.2 73 -10.1 13.8
11:50 1009 29.8 839 24.78 -6 21.1 71 -10.5 13.1
11:55 1009 29.8 839 24.78 -6.1 21.1 70 -10.6 12.9
12:00 1009 29.8 839 24.78 -6.3 20.6 72 -10.6 12.8
12:05 1009 29.8 838 24.75 -6.1 21.1 69 -10.8 12.6
12:10 1009 29.8 838 24.75 -5.9 21.4 69 -10.7 12.7
12:15 1009 29.8 838 24.75 -5.5 22.2 70 -10.2 13.7
12:20 1009 29.8 838 24.75 -5.2 22.6 69 -10 14
12:25 1009 29.8 838 24.75 -5 22.9 69 -9.8 14.3
12:30 1009 29.8 838 24.75 -5.2 22.6 70 -9.8 14.4
12:35 1009 29.8 838 24.75 -4.9 23.2 69 -9.7 14.6
12:40 1009 29.8 838 24.75 -5 23 72 -9.4 15.1
12:45 1009 29.8 838 24.75 -4.8 23.4 72 -9.1 15.5
12:50 1008 29.77 838 24.75 -4.3 24.3 71 -8.9 16.1
12:55 1008 29.77 838 24.75 -4.1 24.7 72 -8.4 16.9
13:00 1008 29.77 837 24.72 -4 24.9 71 -8.4 16.8
13:05 1008 29.77 837 24.72 -4.3 24.3 72 -8.5 16.6
13:10 1008 29.77 837 24.72 -4.5 24 72 -8.8 16.2
13:15 1008 29.77 837 24.72 -4.2 24.5 71 -8.6 16.5
13:20 1008 29.77 837 24.72 -4.1 24.6 72 -8.4 16.9
13:25 1008 29.77 837 24.72 -3.9 24.9 71 -8.4 16.9
13:30 1008 29.77 837 24.72 -4 24.8 71 -8.6 16.6
13:35 1008 29.77 837 24.72 -4 24.7 72 -8.3 17
13:40 1008 29.77 837 24.72 -4 24.9 72 -8.3 17.1
13:45 1008 29.77 837 24.72 -3.8 25.1 70 -8.4 16.8
13:50 1008 29.77 837 24.72 -3.9 25 72 -8.2 17.3
13:55 1007 29.74 837 24.72 -3.9 25 71 -8.3 17
14:00 1007 29.74 837 24.72 -4 24.9 71 -8.4 16.8
14:05 1007 29.74 836 24.69 -3.9 25 72 -8.3 17.1
14:10 1007 29.74 836 24.69 -3.8 25.1 73 -8 17.5
14:15 1007 29.74 836 24.69 -3.6 25.5 71 -8.1 17.5
14:20 1007 29.74 836 24.69 -3.4 25.8 69 -8.3 17.1
14:25 1007 29.74 836 24.69 -3.8 25.2 71 -8.2 17.2
14:30 1007 29.74 836 24.69 -3.9 25 72 -8.3 17.1
14:35 1007 29.74 836 24.69 -3.9 25.1 72 -8.2 17.2
14:40 1007 29.74 836 24.69 -3.8 25.1 74 -7.8 18
14:45 1007 29.74 836 24.69 -4.1 24.7 74 -8 17.7
14:50 1007 29.74 836 24.69 -4.3 24.2 76 -8 17.6
14:55 1007 29.74 836 24.69 -4.4 24 77 -7.8 18
15:00 1007 29.74 836 24.69 -4.3 24.3 74 -8.2 17.2
15:05 1007 29.74 836 24.69 -4.8 23.3 76 -8.5 16.8
15:10 1007 29.74 836 24.69 -4.9 23.1 76 -8.6 16.6
15:15 1007 29.74 836 24.69 -4.8 23.3 77 -8.3 17
15:20 1007 29.74 836 24.69 -4.6 23.8 75 -8.3 17.1
15:25 1007 29.74 836 24.69 -4.7 23.5 77 -8.1 17.4
15:30 1007 29.74 836 24.69 -4.7 23.6 77 -8.1 17.4
15:35 1007 29.74 836 24.69 -4.9 23.2 77 -8.2 17.2
15:40 1007 29.74 836 24.69 -4.7 23.5 79 -7.9 17.8
15:45 1007 29.74 836 24.69 -4.5 23.9 79 -7.6 18.2
15:50 1007 29.74 836 24.69 -4.3 24.2 77 -7.8 17.9
15:55 1007 29.74 836 24.69 -4.2 24.5 73 -8.3 17.1
16:00 1007 29.74 836 24.69 -4.3 24.3 74 -8.2 17.3
16:05 1007 29.74 836 24.69 -4.5 24 75 -8.2 17.2
16:10 1007 29.74 836 24.69 -4.7 23.6 76 -8.2 17.2
16:15 1007 29.74 836 24.69 -4.7 23.6 72 -9 15.8
16:20 1007 29.74 836 24.69 -4.6 23.7 75 -8.4 16.9
16:25 1007 29.74 836 24.69 -4.7 23.5 76 -8.4 16.8
16:30 1007 29.74 836 24.69 -4.9 23.1 77 -8.5 16.8
16:35 1007 29.74 836 24.69 -5.1 22.8 76 -8.8 16.2
16:40 1007 29.74 836 24.69 -5.1 22.9 75 -8.8 16.2
16:45 1007 29.74 836 24.69 -5.2 22.7 76 -8.7 16.3
16:50 1007 29.74 836 24.69 -5.2 22.7 77 -8.6 16.6
16:55 1007 29.74 836 24.69 -5.2 22.7 76 -8.8 16.2
17:00 1007 29.74 836 24.69 -5.3 22.5 76 -8.8 16.1
17:05 1007 29.74 836 24.69 -5.2 22.6 77 -8.7 16.4
17:10 1007 29.74 836 24.69 -5.3 22.5 77 -8.8 16.2
17:15 1007 29.74 837 24.72 -5.4 22.2 76 -9 15.9
17:20 1007 29.74 837 24.72 -5.4 22.2 75 -9.3 15.3
17:25 1008 29.77 837 24.72 -5.5 22.2 74 -9.4 15.2
17:30 1008 29.77 837 24.72 -5.5 22 73 -9.6 14.7
17:35 1008 29.77 837 24.72 -5.7 21.8 75 -9.5 15
17:40 1008 29.77 837 24.72 -5.8 21.6 77 -9.1 15.6
17:45 1008 29.77 837 24.72 -5.7 21.8 79 -8.8 16.2
17:50 1008 29.77 837 24.72 -5.6 22 82 -8.2 17.2
17:55 1008 29.77 837 24.72 -5.6 21.9 85 -7.7 18.1
18:00 1008 29.77 837 24.72 -5.5 22.1 87 -7.4 18.6
18:05 1008 29.77 837 24.72 -5.8 21.6 88 -7.4 18.6
18:10 1008 29.77 837 24.72 -6.2 20.8 92 -7.4 18.7
18:15 1008 29.77 837 24.72 -6.2 20.8 93 -7.2 19.1
18:20 1008 29.77 837 24.72 -6.2 20.9 94 -6.9 19.5
18:25 1008 29.77 837 24.72 -6.1 21 94 -6.9 19.6
18:30 1008 29.77 837 24.72 -6.2 20.8 95 -6.9 19.6
18:35 1008 29.77 837 24.72 -6 21.1 95 -6.7 20
18:40 1008 29.77 837 24.72 -6 21.2 96 -6.6 20.1
18:45 1008 29.77 837 24.72 -5.9 21.3 96 -6.5 20.3
18:50 1008 29.77 837 24.72 -5.9 21.3 96 -6.5 20.2
18:55 1008 29.77 837 24.72 -5.9 21.4 95 -6.5 20.3
19:00 1008 29.77 837 24.72 -5.8 21.5 96 -6.4 20.4
19:05 1008 29.77 837 24.72 -5.8 21.6 96 -6.4 20.6
19:10 1008 29.77 837 24.72 -5.8 21.6 96 -6.3 20.6
19:15 1008 29.77 838 24.75 -5.7 21.7 96 -6.3 20.7
19:20 1008 29.77 838 24.75 -5.7 21.7 96 -6.2 20.8
19:25 1008 29.77 837 24.72 -5.6 21.8 96 -6.2 20.8
19:30 1008 29.77 838 24.75 -5.6 22 96 -6.1 21
19:35 1008 29.77 838 24.75 -5.6 22 96 -6.2 20.9
19:40 1008 29.77 838 24.75 -5.6 22 96 -6.2 20.9
19:45 1008 29.77 837 24.72 -5.6 21.9 96 -6.2 20.9
19:50 1008 29.77 837 24.72 -5.6 22 96 -6.1 21
19:55 1008 29.77 837 24.72 -5.4 22.3 95 -6.1 21.1
20:00 1008 29.77 837 24.72 -5.4 22.3 95 -6 21.1
20:05 1008 29.77 837 24.72 -5.4 22.4 95 -6.1 21.1
20:10 1008 29.77 837 24.72 -5.4 22.3 95 -6.1 21.1
20:15 1008 29.77 837 24.72 -5.4 22.4 95 -6.1 21.1
20:20 1008 29.77 837 24.72 -5.3 22.4 95 -6 21.2
20:25 1008 29.77 837 24.72 -5.4 22.3 95 -6.1 21.1
20:30 1008 29.77 837 24.72 -5.4 22.3 95 -6 21.2
20:35 1008 29.77 837 24.72 -5.2 22.6 95 -5.9 21.4
20:40 1008 29.77 837 24.72 -5.2 22.6 95 -5.9 21.4
20:45 1008 29.77 837 24.72 -5.1 22.9 95 -5.8 21.6
20:50 1008 29.77 837 24.72 -5 22.9 95 -5.7 21.7
20:55 1008 29.77 837 24.72 -5 23 95 -5.7 21.7
21:00 1008 29.77 838 24.75 -5 22.9 96 -5.6 21.9
21:05 1008 29.77 838 24.75 -4.8 23.3 95 -5.5 22.1
21:10 1008 29.77 837 24.72 -5 23 96 -5.6 21.9
21:15 1008 29.77 837 24.72 -5.2 22.6 96 -5.7 21.7
21:20 1008 29.77 837 24.72 -5.2 22.6 97 -5.7 21.7
21:25 1008 29.77 837 24.72 -5.2 22.6 96 -5.7 21.7
21:30 1008 29.77 837 24.72 -5.1 22.8 97 -5.5 22
21:35 1008 29.77 837 24.72 -5 22.9 97 -5.5 22.2
21:40 1008 29.77 837 24.72 -4.8 23.3 96 -5.4 22.3
21:45 1008 29.77 837 24.72 -4.9 23.2 95 -5.5 22.1
21:50 1008 29.77 837 24.72 -4.8 23.4 95 -5.4 22.2
21:55 1008 29.77 837 24.72 -4.9 23.3 95 -5.5 22.1
22:00 1008 29.77 837 24.72 -5 23 95 -5.7 21.8
22:05 1008 29.77 837 24.72 -5 23 96 -5.6 21.9
22:10 1008 29.77 837 24.72 -5.1 22.9 95 -5.7 21.8
22:15 1008 29.77 837 24.72 -5 22.9 95 -5.7 21.7
22:20 1008 29.77 837 24.72 -5 23 96 -5.6 21.9
22:25 1008 29.77 837 24.72 -5.1 22.8 96 -5.6 21.9
22:30 1008 29.77 837 24.72 -5.1 22.9 96 -5.6 22
22:35 1008 29.77 837 24.72 -5 23 96 -5.5 22.1
22:40 1008 29.77 838 24.75 -5 23 96 -5.5 22.1
22:45 1008 29.77 838 24.75 -4.8 23.3 97 -5.3 22.5
22:50 1008 29.77 838 24.75 -4.7 23.6 96 -5.2 22.7
22:55 1008 29.77 838 24.75 -4.6 23.7 97 -5.1 22.8
23:00 1008 29.77 838 24.75 -4.7 23.6 95 -5.3 22.5
23:05 1008 29.77 838 24.75 -4.8 23.3 96 -5.4 22.2
23:10 1008 29.77 838 24.75 -5 23.1 96 -5.5 22.1
23:15 1008 29.77 838 24.75 -5.1 22.9 96 -5.6 21.9
23:20 1008 29.77 838 24.75 -5.2 22.7 96 -5.7 21.8
23:25 1009 29.8 838 24.75 -5.3 22.5 96 -5.8 21.6
23:30 1009 29.8 838 24.75 -5.3 22.5 97 -5.7 21.7
23:35 1009 29.8 838 24.75 -5.2 22.7 96 -5.7 21.7
23:40 1009 29.8 838 24.75 -5.2 22.7 96 -5.7 21.7
23:45 1009 29.8 838 24.75 -5.1 22.8 96 -5.6 21.9
23:50 1008 29.77 838 24.75 -5 22.9 95 -5.7 21.8
23:55 1008 29.77 838 24.75 -4.9 23.1 95 -5.6 22
24:00 1008 29.77 838 24.75 -4.9 23.2 95 -5.6 21.9